createdAt,value
2023-01-28T00:01:17.962Z,18.38
2023-01-28T00:03:52.072Z,16.42
2023-01-28T00:06:22.189Z,20.77
2023-01-28T00:08:51.942Z,10.90
2023-01-28T00:11:23.294Z,12.40
2023-01-28T00:13:55.364Z,12.90
2023-01-28T00:16:27.284Z,9.00
2023-01-28T00:18:57.673Z,7.78
2023-01-28T00:21:27.256Z,11.38
2023-01-28T00:23:57.781Z,8.18
2023-01-28T00:26:27.721Z,8.00
2023-01-28T00:28:57.521Z,9.88
2023-01-28T00:31:29.704Z,9.50
2023-01-28T00:33:58.528Z,16.27
2023-01-28T00:36:28.637Z,8.90
2023-01-28T00:39:00.266Z,14.10
2023-01-28T00:41:31.785Z,9.40
2023-01-28T00:44:00.599Z,15.30
2023-01-28T00:46:30.405Z,25.38
2023-01-28T00:49:00.532Z,17.75
2023-01-28T00:51:30.230Z,15.18
2023-01-28T00:54:00.145Z,11.18
2023-01-28T00:56:30.286Z,11.02
2023-01-28T00:59:00.284Z,13.30
2023-01-28T01:01:30.275Z,11.95
2023-01-28T01:04:03.283Z,16.05
2023-01-28T01:06:40.680Z,28.90
2023-01-28T01:09:12.810Z,36.47
2023-01-28T01:11:42.105Z,36.38
2023-01-28T01:14:11.921Z,39.45
2023-01-28T01:16:41.838Z,24.25
2023-01-28T01:19:11.731Z,17.23
2023-01-28T01:21:41.417Z,22.90
2023-01-28T01:24:11.210Z,18.52
2023-01-28T01:26:40.956Z,15.75
2023-01-28T01:29:09.982Z,21.13
2023-01-28T01:31:38.031Z,22.50
2023-01-28T01:34:06.303Z,14.20
2023-01-28T01:36:35.240Z,13.77
2023-01-28T01:39:03.053Z,15.32
2023-01-28T01:41:33.553Z,14.85
2023-01-28T01:44:06.995Z,22.17
2023-01-28T01:46:52.143Z,13.02
2023-01-28T01:49:28.999Z,10.95
2023-01-28T01:52:22.276Z,15.80
2023-01-28T01:54:59.925Z,16.50
2023-01-28T01:57:36.741Z,22.38
2023-01-28T02:00:08.703Z,15.30
2023-01-28T02:02:48.927Z,16.73
2023-01-28T02:05:22.638Z,19.00
2023-01-28T02:08:18.975Z,15.02
2023-01-28T02:11:10.434Z,18.83
2023-01-28T02:13:48.957Z,15.43
2023-01-28T02:18:50.185Z,16.75
2023-01-28T02:21:49.987Z,18.60
2023-01-28T02:28:24.872Z,19.42
2023-01-28T02:31:29.258Z,16.42
2023-01-28T02:34:19.757Z,12.02
2023-01-28T02:37:37.635Z,17.23
2023-01-28T02:40:59.987Z,11.75
2023-01-28T02:43:43.490Z,13.05
2023-01-28T02:46:40.982Z,15.68
2023-01-28T02:49:37.169Z,17.42
2023-01-28T02:53:05.068Z,17.80
2023-01-28T02:56:34.745Z,11.45
2023-01-28T02:59:36.964Z,17.33
2023-01-28T03:02:21.876Z,18.90
2023-01-28T03:05:26.508Z,16.70
2023-01-28T03:07:58.352Z,15.50
2023-01-28T03:10:29.650Z,14.55
2023-01-28T03:13:19.009Z,15.32
2023-01-28T03:16:09.964Z,15.82
2023-01-28T03:19:11.913Z,16.30
2023-01-28T03:22:04.163Z,17.10
2023-01-28T03:25:08.737Z,14.35
2023-01-28T03:28:24.490Z,12.85
2023-01-28T03:31:38.452Z,14.40
2023-01-28T03:34:29.615Z,12.85
2023-01-28T03:37:01.743Z,13.00
2023-01-28T03:39:32.305Z,16.70
2023-01-28T03:42:13.740Z,13.45
2023-01-28T03:44:50.959Z,12.40
2023-01-28T03:47:27.610Z,14.95
2023-01-28T03:49:59.927Z,13.88
2023-01-28T03:52:33.175Z,13.40
2023-01-28T03:55:14.459Z,11.70
2023-01-28T03:57:45.078Z,11.93
2023-01-28T04:00:18.544Z,15.23
2023-01-28T04:02:47.392Z,15.02
2023-01-28T04:05:19.927Z,13.00
2023-01-28T04:07:51.730Z,12.02
2023-01-28T04:10:22.915Z,9.68
2023-01-28T04:12:54.407Z,10.57
2023-01-28T04:15:24.368Z,10.88
2023-01-28T04:17:54.177Z,10.50
2023-01-28T04:20:24.171Z,10.60
2023-01-28T04:22:53.856Z,10.10
2023-01-28T04:25:23.705Z,8.20
2023-01-28T04:27:54.090Z,8.35
2023-01-28T04:30:24.719Z,9.85
2023-01-28T04:32:54.949Z,13.05
2023-01-28T04:35:25.015Z,11.70
2023-01-28T04:37:54.814Z,15.38
2023-01-28T04:40:24.542Z,10.43
2023-01-28T04:42:56.850Z,10.43
2023-01-28T04:45:26.835Z,7.72
2023-01-28T04:47:57.252Z,5.35
2023-01-28T04:50:26.617Z,5.97
2023-01-28T04:52:56.526Z,5.82
2023-01-28T04:55:26.923Z,5.78
2023-01-28T04:57:54.840Z,5.70
2023-01-28T05:00:23.379Z,5.82
2023-01-28T05:02:51.749Z,8.00
2023-01-28T05:05:20.454Z,4.90
2023-01-28T05:07:55.285Z,4.65
2023-01-28T05:10:27.556Z,10.88
2023-01-28T05:12:55.798Z,5.10
2023-01-28T05:15:25.761Z,7.05
2023-01-28T05:18:00.114Z,5.63
2023-01-28T05:20:29.947Z,10.35
2023-01-28T05:22:58.452Z,5.28
2023-01-28T05:25:27.763Z,4.35
2023-01-28T05:27:55.512Z,7.68
2023-01-28T05:30:23.925Z,4.65
2023-01-28T05:32:57.655Z,5.72
2023-01-28T05:35:27.733Z,6.95
2023-01-28T05:37:57.786Z,4.28
2023-01-28T05:40:27.846Z,4.35
2023-01-28T05:42:57.945Z,7.60
2023-01-28T05:45:28.069Z,7.13
2023-01-28T05:47:58.253Z,6.53
2023-01-28T05:50:28.354Z,6.50
2023-01-28T05:52:58.466Z,6.13
2023-01-28T05:55:28.523Z,5.72
2023-01-28T05:57:58.782Z,5.97
2023-01-28T06:00:28.860Z,6.28
2023-01-28T06:02:58.908Z,4.32
2023-01-28T06:05:28.968Z,5.50
2023-01-28T06:07:59.726Z,6.03
2023-01-28T06:10:30.225Z,4.63
2023-01-28T06:13:00.445Z,8.40
2023-01-28T06:15:30.526Z,7.57
2023-01-28T06:18:00.595Z,4.85
2023-01-28T06:20:30.668Z,5.28
2023-01-28T06:23:00.766Z,8.50
2023-01-28T06:25:30.814Z,4.82
2023-01-28T06:28:00.959Z,6.50
2023-01-28T06:30:31.026Z,5.18
2023-01-28T06:33:01.226Z,7.68
2023-01-28T06:35:31.266Z,9.73
2023-01-28T06:38:01.266Z,7.43
2023-01-28T06:40:31.357Z,4.40
2023-01-28T06:43:01.373Z,4.05
2023-01-28T06:45:29.840Z,6.95
2023-01-28T06:47:58.288Z,6.60
2023-01-28T06:50:26.792Z,7.35
2023-01-28T06:52:55.086Z,6.20
2023-01-28T06:55:23.530Z,4.80
2023-01-28T06:57:51.957Z,6.05
2023-01-28T07:00:20.908Z,6.47
2023-01-28T07:02:48.810Z,10.15
2023-01-28T07:05:17.263Z,9.50
2023-01-28T07:07:46.732Z,7.68
2023-01-28T07:10:14.910Z,6.85
2023-01-28T07:12:44.015Z,15.75
2023-01-28T07:15:15.284Z,13.98
2023-01-28T07:17:46.305Z,13.10
2023-01-28T07:20:17.791Z,14.98
2023-01-28T07:22:48.047Z,29.50
2023-01-28T07:25:18.307Z,18.83
2023-01-28T07:27:53.936Z,20.63
2023-01-28T07:30:24.346Z,17.02
2023-01-28T07:32:58.028Z,21.30
2023-01-28T07:35:28.458Z,17.85
2023-01-28T07:38:01.618Z,16.52
2023-01-28T07:40:31.694Z,21.67
2023-01-28T07:43:01.864Z,27.35
2023-01-28T07:45:32.284Z,22.63
2023-01-28T07:48:07.835Z,20.33
2023-01-28T07:50:39.707Z,22.15
2023-01-28T07:53:13.395Z,18.80
2023-01-28T07:55:43.421Z,20.15
2023-01-28T07:58:13.504Z,21.50
2023-01-28T08:00:43.622Z,19.83
2023-01-28T08:03:16.097Z,22.73
2023-01-28T08:05:52.979Z,19.98
2023-01-28T08:08:23.074Z,24.55
2023-01-28T08:10:53.501Z,20.60
2023-01-28T08:13:21.283Z,22.27
2023-01-28T08:15:49.410Z,25.67
2023-01-28T08:18:17.783Z,24.90
2023-01-28T08:20:47.744Z,23.20
2023-01-28T08:23:23.171Z,23.40
2023-01-28T08:25:55.092Z,27.13
2023-01-28T08:28:28.453Z,27.63
2023-01-28T08:31:00.982Z,21.73
2023-01-28T08:33:30.086Z,26.77
2023-01-28T08:36:05.080Z,26.08
2023-01-28T08:38:33.320Z,27.65
2023-01-28T08:41:03.208Z,19.63
2023-01-28T08:43:33.042Z,23.52
2023-01-28T08:46:07.772Z,20.95
2023-01-28T08:48:35.196Z,16.83
2023-01-28T08:51:05.654Z,19.35
2023-01-28T08:53:35.575Z,19.88
2023-01-28T08:56:06.350Z,23.60
2023-01-28T08:58:36.169Z,17.38
2023-01-28T09:01:07.522Z,21.17
2023-01-28T09:03:36.867Z,20.83
2023-01-28T09:06:07.201Z,13.65
2023-01-28T09:08:37.228Z,15.50
2023-01-28T09:11:07.497Z,13.93
2023-01-28T09:13:37.731Z,18.85
2023-01-28T09:16:09.146Z,17.75
2023-01-28T09:18:38.282Z,17.48
2023-01-28T09:21:08.977Z,22.25
2023-01-28T09:23:38.741Z,16.50
2023-01-28T09:26:09.421Z,16.95
2023-01-28T09:28:40.237Z,18.00
2023-01-28T09:31:13.358Z,18.77
2023-01-28T09:33:42.125Z,16.23
2023-01-28T09:36:12.050Z,19.63
2023-01-28T09:38:42.103Z,21.80
2023-01-28T09:42:13.692Z,20.75
2023-01-28T09:45:28.603Z,15.27
2023-01-28T09:48:04.937Z,22.67
2023-01-28T09:50:42.126Z,19.15
2023-01-28T09:53:55.316Z,18.00
2023-01-28T09:56:36.451Z,14.45
2023-01-28T09:59:22.726Z,27.45
2023-01-28T10:02:26.152Z,10.93
2023-01-28T10:05:23.279Z,12.85
2023-01-28T10:08:26.669Z,11.50
2023-01-28T10:11:44.116Z,12.77
2023-01-28T10:15:01.591Z,11.68
2023-01-28T10:17:49.839Z,9.68
2023-01-28T10:20:38.946Z,8.98
2023-01-28T10:23:26.724Z,11.80
2023-01-28T10:26:05.121Z,6.85
2023-01-28T10:28:37.336Z,8.90
2023-01-28T10:31:14.692Z,5.28
2023-01-28T10:33:44.728Z,4.07
2023-01-28T10:36:18.375Z,5.20
2023-01-28T10:38:48.751Z,5.07
2023-01-28T10:41:23.472Z,9.40
2023-01-28T10:43:53.788Z,4.93
2023-01-28T10:46:37.919Z,4.72
2023-01-28T10:49:26.539Z,4.85
2023-01-28T10:51:56.682Z,4.35
2023-01-28T10:54:29.379Z,4.97
2023-01-28T10:57:13.398Z,3.35
2023-01-28T10:59:44.458Z,2.20
2023-01-28T11:02:37.284Z,6.28
2023-01-28T11:05:30.531Z,2.42
2023-01-28T11:08:16.684Z,18.45
2023-01-28T11:10:48.158Z,4.10
2023-01-28T11:13:29.555Z,8.40
2023-01-28T11:16:17.347Z,3.60
2023-01-28T11:18:56.501Z,2.45
2023-01-28T11:21:31.496Z,3.08
2023-01-28T11:24:31.785Z,4.03
2023-01-28T11:27:22.852Z,3.25
2023-01-28T11:29:54.089Z,5.43
2023-01-28T11:32:27.112Z,10.25
2023-01-28T11:34:59.233Z,3.88
2023-01-28T11:37:29.967Z,4.18
2023-01-28T11:40:22.170Z,4.63
2023-01-28T11:43:00.552Z,3.80
2023-01-28T11:46:34.359Z,1.63
2023-01-28T11:49:30.322Z,2.13
2023-01-28T11:52:21.751Z,4.35
2023-01-28T11:55:21.846Z,4.03
2023-01-28T11:58:50.881Z,4.18
2023-01-28T12:01:44.227Z,3.20
2023-01-28T12:05:35.004Z,3.90
2023-01-28T12:08:41.618Z,2.83
2023-01-28T12:11:51.930Z,3.00
2023-01-28T12:15:06.317Z,2.67
2023-01-28T12:18:37.145Z,2.50
2023-01-28T12:21:49.039Z,3.38
2023-01-28T12:24:57.216Z,5.88
2023-01-28T12:28:08.526Z,8.43
2023-01-28T12:31:28.874Z,26.00
2023-01-28T12:34:29.207Z,24.13
2023-01-28T12:37:51.389Z,19.10
2023-01-28T12:41:10.903Z,4.45
2023-01-28T12:43:55.507Z,10.13
2023-01-28T12:46:52.538Z,3.65
2023-01-28T12:49:48.929Z,3.63
2023-01-28T12:52:43.127Z,2.42
2023-01-28T12:55:38.966Z,7.47
2023-01-28T12:58:35.355Z,1.90
2023-01-28T13:01:19.216Z,3.38
2023-01-28T13:04:10.688Z,6.32
2023-01-28T13:07:40.285Z,4.00
2023-01-28T13:10:36.779Z,3.83
2023-01-28T13:13:17.532Z,2.45
2023-01-28T13:15:48.265Z,9.27
2023-01-28T13:18:48.253Z,4.05
2023-01-28T13:21:24.413Z,2.03
2023-01-28T13:24:23.900Z,2.33
2023-01-28T13:26:56.671Z,5.25
2023-01-28T13:29:24.436Z,4.93
2023-01-28T13:32:00.605Z,4.20
2023-01-28T13:34:44.238Z,4.15
2023-01-28T13:37:45.325Z,2.25
2023-01-28T13:40:15.214Z,5.10
2023-01-28T13:42:45.095Z,3.42
2023-01-28T13:45:18.234Z,1.98
2023-01-28T13:47:59.749Z,2.60
2023-01-28T13:50:42.947Z,2.90
2023-01-28T13:53:41.039Z,3.55
2023-01-28T13:56:28.242Z,4.82
2023-01-28T13:59:41.187Z,4.15
2023-01-28T14:03:23.731Z,2.95
2023-01-28T14:06:10.162Z,2.42
2023-01-28T14:09:23.964Z,1.52
2023-01-28T14:12:59.064Z,1.45
2023-01-28T14:15:46.281Z,4.65
2023-01-28T14:18:36.159Z,3.45
2023-01-28T14:21:21.960Z,1.73
2023-01-28T14:23:57.821Z,2.92
2023-01-28T14:26:46.141Z,4.45
2023-01-28T14:29:33.724Z,3.65
2023-01-28T14:32:19.226Z,1.98
2023-01-28T14:34:50.233Z,2.45
2023-01-28T14:37:32.414Z,2.90
2023-01-28T14:40:16.568Z,1.73
2023-01-28T14:42:56.394Z,1.20
2023-01-28T14:45:49.135Z,2.90
2023-01-28T14:48:38.912Z,1.33
2023-01-28T14:51:48.561Z,2.08
2023-01-28T14:54:56.498Z,2.93
2023-01-28T14:57:58.399Z,2.55
2023-01-28T15:00:33.530Z,3.42
2023-01-28T15:03:24.788Z,2.08
2023-01-28T15:06:05.186Z,2.08
2023-01-28T15:08:35.995Z,2.42
2023-01-28T15:11:13.366Z,2.25
2023-01-28T15:13:52.660Z,2.38
2023-01-28T15:16:35.027Z,1.92
2023-01-28T15:19:09.774Z,1.50
2023-01-28T15:21:45.775Z,2.28
2023-01-28T15:24:17.207Z,1.55
2023-01-28T15:26:49.451Z,1.38
2023-01-28T15:29:32.144Z,2.13
2023-01-28T15:32:05.249Z,1.40
2023-01-28T15:34:37.130Z,1.40
2023-01-28T15:37:13.216Z,2.35
2023-01-28T15:39:41.667Z,2.22
2023-01-28T15:42:29.413Z,2.33
2023-01-28T15:45:00.627Z,1.30
2023-01-28T15:47:35.535Z,3.03
2023-01-28T15:50:18.412Z,1.58
2023-01-28T15:52:52.280Z,1.40
2023-01-28T15:55:39.694Z,1.45
2023-01-28T15:58:27.428Z,3.42
2023-01-28T16:01:24.219Z,1.90
2023-01-28T16:04:06.562Z,2.90
2023-01-28T16:06:46.517Z,3.30
2023-01-28T16:09:30.289Z,2.40
2023-01-28T16:12:14.715Z,1.67
2023-01-28T16:14:54.681Z,2.47
2023-01-28T16:17:40.193Z,4.63
2023-01-28T16:20:29.894Z,1.80
2023-01-28T16:23:04.368Z,1.75
2023-01-28T16:25:39.965Z,3.03
2023-01-28T16:28:20.336Z,1.98
2023-01-28T16:30:50.356Z,2.85
2023-01-28T16:33:22.717Z,2.38
2023-01-28T16:36:07.767Z,4.45
2023-01-28T16:38:38.544Z,6.70
2023-01-28T16:41:38.806Z,4.82
2023-01-28T16:44:15.556Z,2.45
2023-01-28T16:46:45.879Z,3.95
2023-01-28T16:49:15.928Z,6.70
2023-01-28T16:51:46.082Z,3.88
2023-01-28T16:54:17.726Z,4.03
2023-01-28T16:56:48.510Z,7.07
2023-01-28T16:59:18.548Z,5.80
2023-01-28T17:01:49.608Z,5.78
2023-01-28T17:04:19.740Z,2.25
2023-01-28T17:06:49.748Z,2.38
2023-01-28T17:09:19.745Z,3.03
2023-01-28T17:11:49.746Z,2.65
2023-01-28T17:14:19.767Z,3.78
2023-01-28T17:16:49.928Z,5.18
2023-01-28T17:19:20.106Z,2.35
2023-01-28T17:21:50.151Z,4.82
2023-01-28T17:24:20.255Z,4.15
2023-01-28T17:26:54.392Z,5.32
2023-01-28T17:29:24.415Z,4.78
2023-01-28T17:31:54.705Z,3.38
2023-01-28T17:34:25.515Z,6.35
2023-01-28T17:36:55.565Z,3.40
2023-01-28T17:39:25.583Z,3.92
2023-01-28T17:41:56.287Z,6.03
2023-01-28T17:44:26.379Z,5.28
2023-01-28T17:46:56.409Z,8.93
2023-01-28T17:49:25.059Z,5.28
2023-01-28T17:51:53.232Z,6.68
2023-01-28T17:54:24.661Z,6.80
2023-01-28T17:56:53.158Z,5.00
2023-01-28T17:59:22.631Z,5.93
2023-01-28T18:01:54.729Z,3.30
2023-01-28T18:04:25.383Z,5.63
2023-01-28T18:06:55.451Z,9.10
2023-01-28T18:09:25.531Z,9.18
2023-01-28T18:11:55.511Z,9.63
2023-01-28T18:14:25.663Z,4.97
2023-01-28T18:16:55.672Z,5.68
2023-01-28T18:19:26.111Z,9.68
2023-01-28T18:21:56.626Z,5.28
2023-01-28T18:24:30.669Z,6.47
2023-01-28T18:27:02.495Z,6.13
2023-01-28T18:29:32.608Z,8.43
2023-01-28T18:32:02.710Z,6.68
2023-01-28T18:34:34.099Z,10.52
2023-01-28T18:37:04.169Z,9.23
2023-01-28T18:39:34.518Z,9.10
2023-01-28T18:42:04.698Z,16.63
2023-01-28T18:44:35.433Z,7.45
2023-01-28T18:47:05.535Z,16.33
2023-01-28T18:49:35.580Z,9.82
2023-01-28T18:52:05.633Z,6.30
2023-01-28T18:54:36.053Z,3.90
2023-01-28T18:57:06.134Z,3.20
2023-01-28T18:59:36.213Z,4.03
2023-01-28T19:02:06.384Z,5.40
2023-01-28T19:04:36.467Z,3.42
2023-01-28T19:07:08.295Z,3.75
2023-01-28T19:09:38.975Z,5.82
2023-01-28T19:12:14.679Z,4.85
2023-01-28T19:14:44.039Z,7.88
2023-01-28T19:17:13.050Z,12.10
2023-01-28T19:19:40.829Z,11.75
2023-01-28T19:22:09.597Z,9.50
2023-01-28T19:24:37.635Z,7.38
2023-01-28T19:27:06.267Z,10.85
2023-01-28T19:29:34.569Z,4.07
2023-01-28T19:32:04.557Z,6.35
2023-01-28T19:34:34.320Z,6.53
2023-01-28T19:37:02.717Z,5.35
2023-01-28T19:39:32.227Z,9.13
2023-01-28T19:42:02.197Z,8.77
2023-01-28T19:44:34.153Z,8.93
2023-01-28T19:47:05.886Z,6.68
2023-01-28T19:49:36.192Z,6.65
2023-01-28T19:52:09.134Z,8.77
2023-01-28T19:54:39.268Z,7.00
2023-01-28T19:57:09.376Z,4.22
2023-01-28T19:59:39.388Z,9.98
2023-01-28T20:02:10.673Z,8.38
2023-01-28T20:04:51.303Z,10.00
2023-01-28T20:07:25.181Z,7.10
2023-01-28T20:09:55.534Z,5.63
2023-01-28T20:12:26.324Z,9.27
2023-01-28T20:14:55.683Z,7.65
2023-01-28T20:17:28.567Z,5.63
2023-01-28T20:19:57.829Z,4.68
2023-01-28T20:22:27.670Z,8.38
2023-01-28T20:24:57.512Z,9.20
2023-01-28T20:27:27.528Z,8.70
2023-01-28T20:29:57.553Z,5.97
2023-01-28T20:32:27.459Z,5.15
2023-01-28T20:34:57.528Z,3.97
2023-01-28T20:37:27.269Z,6.90
2023-01-28T20:39:57.121Z,5.28
2023-01-28T20:42:26.838Z,4.97
2023-01-28T20:44:56.870Z,4.53
2023-01-28T20:47:26.528Z,6.32
2023-01-28T20:49:56.363Z,6.53
2023-01-28T20:52:24.745Z,3.35
2023-01-28T20:54:53.905Z,3.80
2023-01-28T20:57:21.554Z,6.30
2023-01-28T20:59:50.004Z,5.50
2023-01-28T21:02:18.421Z,6.70
2023-01-28T21:04:47.685Z,8.02
2023-01-28T21:07:15.356Z,6.00
2023-01-28T21:09:43.675Z,6.25
2023-01-28T21:12:17.664Z,8.70
2023-01-28T21:14:49.131Z,5.45
2023-01-28T21:17:17.467Z,5.40
2023-01-28T21:19:47.544Z,7.70
2023-01-28T21:22:17.520Z,7.03
2023-01-28T21:24:49.158Z,6.28
2023-01-28T21:27:19.294Z,6.20
2023-01-28T21:29:49.151Z,9.65
2023-01-28T21:32:23.775Z,5.18
2023-01-28T21:34:52.093Z,7.70
2023-01-28T21:37:22.588Z,6.90
2023-01-28T21:39:52.069Z,6.72
2023-01-28T21:42:22.457Z,8.15
2023-01-28T21:44:52.407Z,6.43
2023-01-28T21:47:22.030Z,10.65
2023-01-28T21:49:51.959Z,6.35
2023-01-28T21:52:22.334Z,9.23
2023-01-28T21:54:52.630Z,8.98
2023-01-28T21:57:22.478Z,5.80
2023-01-28T21:59:52.100Z,9.55
2023-01-28T22:02:23.885Z,7.55
2023-01-28T22:04:52.257Z,7.28
2023-01-28T22:07:22.086Z,7.43
2023-01-28T22:09:52.444Z,8.10
2023-01-28T22:12:22.844Z,7.05
2023-01-28T22:14:52.477Z,5.35
2023-01-28T22:17:22.531Z,8.73
2023-01-28T22:19:52.540Z,5.85
2023-01-28T22:22:22.303Z,6.57
2023-01-28T22:24:52.064Z,8.43
2023-01-28T22:27:21.963Z,8.60
2023-01-28T22:29:53.786Z,5.75
2023-01-28T22:32:23.147Z,11.50
2023-01-28T22:34:52.845Z,7.90
2023-01-28T22:37:22.828Z,6.63
2023-01-28T22:39:55.928Z,7.03
2023-01-28T22:42:25.878Z,9.40
2023-01-28T22:44:53.020Z,6.75
2023-01-28T22:47:21.532Z,9.93
2023-01-28T22:49:49.962Z,7.07
2023-01-28T22:52:18.257Z,11.43
2023-01-28T22:54:47.851Z,8.77
2023-01-28T22:57:15.196Z,9.80
2023-01-28T22:59:51.246Z,9.38
2023-01-28T23:02:28.704Z,7.85
2023-01-28T23:04:58.739Z,8.23
2023-01-28T23:07:28.590Z,8.93
2023-01-28T23:09:58.702Z,11.02
2023-01-28T23:12:28.903Z,11.75
2023-01-28T23:15:16.871Z,12.75
2023-01-28T23:18:05.079Z,12.68
2023-01-28T23:20:53.596Z,10.25
2023-01-28T23:23:40.689Z,11.15
2023-01-28T23:26:10.659Z,19.23
2023-01-28T23:28:40.939Z,11.77
2023-01-28T23:31:10.513Z,14.88
2023-01-28T23:33:40.678Z,15.32
2023-01-28T23:36:10.386Z,17.02
2023-01-28T23:38:40.260Z,12.52
2023-01-28T23:41:10.204Z,15.35
2023-01-28T23:43:39.943Z,13.02
2023-01-28T23:46:10.426Z,14.35
2023-01-28T23:48:40.801Z,13.90
2023-01-28T23:51:10.464Z,13.43
2023-01-28T23:53:40.348Z,18.85
2023-01-28T23:56:11.087Z,15.93
2023-01-28T23:58:43.740Z,15.52
